sensor_id;sensor_type;location;lat;lon;timestamp;temperature;humidity
6738;DHT22;3406;49.902;8.596;2022-12-18T00:00:07;-6.10;87.60
6738;DHT22;3406;49.902;8.596;2022-12-18T00:02:34;-6.10;87.60
6738;DHT22;3406;49.902;8.596;2022-12-18T00:05:01;-6.20;87.50
6738;DHT22;3406;49.902;8.596;2022-12-18T00:07:28;-6.10;87.50
6738;DHT22;3406;49.902;8.596;2022-12-18T00:09:54;-6.20;87.50
6738;DHT22;3406;49.902;8.596;2022-12-18T00:12:21;-6.30;87.60
6738;DHT22;3406;49.902;8.596;2022-12-18T00:14:49;-6.30;87.60
6738;DHT22;3406;49.902;8.596;2022-12-18T00:17:16;-6.30;87.50
6738;DHT22;3406;49.902;8.596;2022-12-18T00:19:43;-6.30;87.40
6738;DHT22;3406;49.902;8.596;2022-12-18T00:22:09;-6.30;87.40
6738;DHT22;3406;49.902;8.596;2022-12-18T00:24:36;-6.40;87.20
6738;DHT22;3406;49.902;8.596;2022-12-18T00:27:03;-6.40;87.20
6738;DHT22;3406;49.902;8.596;2022-12-18T00:29:29;-6.40;87.10
6738;DHT22;3406;49.902;8.596;2022-12-18T00:31:57;-6.40;87.00
6738;DHT22;3406;49.902;8.596;2022-12-18T00:34:24;-6.40;87.00
6738;DHT22;3406;49.902;8.596;2022-12-18T00:36:51;-6.50;86.90
6738;DHT22;3406;49.902;8.596;2022-12-18T00:39:17;-6.50;86.90
6738;DHT22;3406;49.902;8.596;2022-12-18T00:41:44;-6.50;86.80
6738;DHT22;3406;49.902;8.596;2022-12-18T00:44:29;-6.60;86.80
6738;DHT22;3406;49.902;8.596;2022-12-18T00:46:57;-6.60;86.80
6738;DHT22;3406;49.902;8.596;2022-12-18T00:49:23;-6.60;86.70
6738;DHT22;3406;49.902;8.596;2022-12-18T00:51:50;-6.70;86.70
6738;DHT22;3406;49.902;8.596;2022-12-18T00:54:17;-6.70;86.60
6738;DHT22;3406;49.902;8.596;2022-12-18T00:56:44;-6.70;86.60
6738;DHT22;3406;49.902;8.596;2022-12-18T00:59:10;-6.70;86.60
6738;DHT22;3406;49.902;8.596;2022-12-18T01:01:37;-6.70;86.60
6738;DHT22;3406;49.902;8.596;2022-12-18T01:04:05;-6.70;86.60
6738;DHT22;3406;49.902;8.596;2022-12-18T01:06:32;-6.70;86.50
6738;DHT22;3406;49.902;8.596;2022-12-18T01:08:59;-6.70;86.40
6738;DHT22;3406;49.902;8.596;2022-12-18T01:11:26;-6.80;87.00
6738;DHT22;3406;49.902;8.596;2022-12-18T01:13:53;-6.80;86.20
6738;DHT22;3406;49.902;8.596;2022-12-18T01:16:20;-6.80;86.20
6738;DHT22;3406;49.902;8.596;2022-12-18T01:18:47;-6.90;86.00
6738;DHT22;3406;49.902;8.596;2022-12-18T01:21:16;-6.90;86.10
6738;DHT22;3406;49.902;8.596;2022-12-18T01:23:43;-6.90;86.10
6738;DHT22;3406;49.902;8.596;2022-12-18T01:26:11;-6.90;86.00
6738;DHT22;3406;49.902;8.596;2022-12-18T01:28:38;-7.00;85.80
6738;DHT22;3406;49.902;8.596;2022-12-18T01:31:18;-7.00;85.80
6738;DHT22;3406;49.902;8.596;2022-12-18T01:33:45;-7.10;85.70
6738;DHT22;3406;49.902;8.596;2022-12-18T01:36:18;-7.10;85.60
6738;DHT22;3406;49.902;8.596;2022-12-18T01:38:45;-7.10;85.70
6738;DHT22;3406;49.902;8.596;2022-12-18T01:41:13;-7.10;85.80
6738;DHT22;3406;49.902;8.596;2022-12-18T01:43:45;-7.10;85.80
6738;DHT22;3406;49.902;8.596;2022-12-18T01:46:12;-7.10;85.70
6738;DHT22;3406;49.902;8.596;2022-12-18T01:48:40;-7.10;85.60
6738;DHT22;3406;49.902;8.596;2022-12-18T01:51:09;-7.10;85.60
6738;DHT22;3406;49.902;8.596;2022-12-18T01:53:39;-7.10;85.60
6738;DHT22;3406;49.902;8.596;2022-12-18T01:56:07;-7.20;85.40
6738;DHT22;3406;49.902;8.596;2022-12-18T01:58:39;-7.20;85.50
6738;DHT22;3406;49.902;8.596;2022-12-18T02:01:08;-7.20;85.50
6738;DHT22;3406;49.902;8.596;2022-12-18T02:03:35;-7.20;85.50
6738;DHT22;3406;49.902;8.596;2022-12-18T02:06:07;-7.20;85.40
6738;DHT22;3406;49.902;8.596;2022-12-18T02:08:41;-7.20;85.30
6738;DHT22;3406;49.902;8.596;2022-12-18T02:11:12;-7.30;85.20
6738;DHT22;3406;49.902;8.596;2022-12-18T02:13:46;-7.30;85.30
6738;DHT22;3406;49.902;8.596;2022-12-18T02:16:20;-7.30;85.40
6738;DHT22;3406;49.902;8.596;2022-12-18T02:18:50;-7.20;85.50
6738;DHT22;3406;49.902;8.596;2022-12-18T02:21:25;-7.20;85.40
6738;DHT22;3406;49.902;8.596;2022-12-18T02:24:02;-7.20;85.40
6738;DHT22;3406;49.902;8.596;2022-12-18T02:26:35;-7.20;85.30
6738;DHT22;3406;49.902;8.596;2022-12-18T02:29:05;-7.30;85.10
6738;DHT22;3406;49.902;8.596;2022-12-18T02:31:38;-7.30;85.10
6738;DHT22;3406;49.902;8.596;2022-12-18T02:34:08;-7.30;85.10
6738;DHT22;3406;49.902;8.596;2022-12-18T02:36:38;-7.30;85.10
6738;DHT22;3406;49.902;8.596;2022-12-18T02:39:07;-7.20;85.10
6738;DHT22;3406;49.902;8.596;2022-12-18T02:41:37;-7.20;85.20
6738;DHT22;3406;49.902;8.596;2022-12-18T02:44:09;-7.30;85.00
6738;DHT22;3406;49.902;8.596;2022-12-18T02:46:38;-7.30;84.90
6738;DHT22;3406;49.902;8.596;2022-12-18T02:49:15;-7.30;84.90
6738;DHT22;3406;49.902;8.596;2022-12-18T02:51:52;-7.40;84.70
6738;DHT22;3406;49.902;8.596;2022-12-18T02:54:26;-7.40;84.70
6738;DHT22;3406;49.902;8.596;2022-12-18T02:57:03;-7.40;84.70
6738;DHT22;3406;49.902;8.596;2022-12-18T02:59:36;-7.40;84.60
6738;DHT22;3406;49.902;8.596;2022-12-18T03:02:09;-7.40;84.70
6738;DHT22;3406;49.902;8.596;2022-12-18T03:04:45;-7.40;84.70
6738;DHT22;3406;49.902;8.596;2022-12-18T03:07:19;-7.40;84.70
6738;DHT22;3406;49.902;8.596;2022-12-18T03:09:50;-7.40;84.70
6738;DHT22;3406;49.902;8.596;2022-12-18T03:12:23;-7.40;84.80
6738;DHT22;3406;49.902;8.596;2022-12-18T03:14:57;-7.30;85.00
6738;DHT22;3406;49.902;8.596;2022-12-18T03:17:27;-7.30;85.00
6738;DHT22;3406;49.902;8.596;2022-12-18T03:19:59;-7.30;85.10
6738;DHT22;3406;49.902;8.596;2022-12-18T03:22:30;-7.30;85.00
6738;DHT22;3406;49.902;8.596;2022-12-18T03:25:00;-7.30;85.00
6738;DHT22;3406;49.902;8.596;2022-12-18T03:27:29;-7.30;85.00
6738;DHT22;3406;49.902;8.596;2022-12-18T03:30:02;-7.20;85.10
6738;DHT22;3406;49.902;8.596;2022-12-18T03:32:37;-7.20;85.10
6738;DHT22;3406;49.902;8.596;2022-12-18T03:35:06;-7.20;85.10
6738;DHT22;3406;49.902;8.596;2022-12-18T03:37:33;-7.20;85.10
6738;DHT22;3406;49.902;8.596;2022-12-18T03:40:00;-7.10;85.30
6738;DHT22;3406;49.902;8.596;2022-12-18T03:42:31;-7.10;85.20
6738;DHT22;3406;49.902;8.596;2022-12-18T03:45:03;-7.10;85.30
6738;DHT22;3406;49.902;8.596;2022-12-18T03:47:37;-7.00;85.30
6738;DHT22;3406;49.902;8.596;2022-12-18T03:50:12;-7.00;85.30
6738;DHT22;3406;49.902;8.596;2022-12-18T03:52:45;-7.00;85.20
6738;DHT22;3406;49.902;8.596;2022-12-18T03:55:14;-7.00;85.10
6738;DHT22;3406;49.902;8.596;2022-12-18T03:57:44;-7.00;85.10
6738;DHT22;3406;49.902;8.596;2022-12-18T04:00:14;-7.00;85.10
6738;DHT22;3406;49.902;8.596;2022-12-18T04:02:44;-7.00;85.20
6738;DHT22;3406;49.902;8.596;2022-12-18T04:05:12;-7.00;85.30
6738;DHT22;3406;49.902;8.596;2022-12-18T04:07:40;-7.00;85.30
6738;DHT22;3406;49.902;8.596;2022-12-18T04:10:09;-7.00;85.30
6738;DHT22;3406;49.902;8.596;2022-12-18T04:12:37;-7.00;85.30
6738;DHT22;3406;49.902;8.596;2022-12-18T04:15:07;-7.00;85.30
6738;DHT22;3406;49.902;8.596;2022-12-18T04:17:34;-7.00;85.30
6738;DHT22;3406;49.902;8.596;2022-12-18T04:20:00;-7.00;85.20
6738;DHT22;3406;49.902;8.596;2022-12-18T04:22:28;-6.90;85.40
6738;DHT22;3406;49.902;8.596;2022-12-18T04:24:54;-6.90;85.40
6738;DHT22;3406;49.902;8.596;2022-12-18T04:27:22;-6.90;85.40
6738;DHT22;3406;49.902;8.596;2022-12-18T04:29:48;-6.90;85.50
6738;DHT22;3406;49.902;8.596;2022-12-18T04:32:16;-6.90;85.40
6738;DHT22;3406;49.902;8.596;2022-12-18T04:34:43;-6.90;85.40
6738;DHT22;3406;49.902;8.596;2022-12-18T04:37:10;-6.90;85.50
6738;DHT22;3406;49.902;8.596;2022-12-18T04:39:36;-6.90;85.60
6738;DHT22;3406;49.902;8.596;2022-12-18T04:42:03;-6.90;85.60
6738;DHT22;3406;49.902;8.596;2022-12-18T04:44:30;-6.90;85.80
6738;DHT22;3406;49.902;8.596;2022-12-18T04:46:56;-6.80;86.00
6738;DHT22;3406;49.902;8.596;2022-12-18T04:49:24;-6.80;86.00
6738;DHT22;3406;49.902;8.596;2022-12-18T04:51:51;-6.80;86.00
6738;DHT22;3406;49.902;8.596;2022-12-18T04:54:18;-6.80;86.00
6738;DHT22;3406;49.902;8.596;2022-12-18T04:56:47;-6.70;86.10
6738;DHT22;3406;49.902;8.596;2022-12-18T04:59:13;-6.70;86.10
6738;DHT22;3406;49.902;8.596;2022-12-18T05:01:40;-6.70;86.20
6738;DHT22;3406;49.902;8.596;2022-12-18T05:04:07;-6.60;86.30
6738;DHT22;3406;49.902;8.596;2022-12-18T05:06:35;-6.60;86.30
6738;DHT22;3406;49.902;8.596;2022-12-18T05:09:01;-6.60;86.30
6738;DHT22;3406;49.902;8.596;2022-12-18T05:11:28;-6.60;86.40
6738;DHT22;3406;49.902;8.596;2022-12-18T05:13:55;-6.60;86.30
6738;DHT22;3406;49.902;8.596;2022-12-18T05:16:21;-6.60;86.30
6738;DHT22;3406;49.902;8.596;2022-12-18T05:18:48;-6.70;86.00
6738;DHT22;3406;49.902;8.596;2022-12-18T05:21:15;-6.70;86.10
6738;DHT22;3406;49.902;8.596;2022-12-18T05:23:43;-6.70;86.10
6738;DHT22;3406;49.902;8.596;2022-12-18T05:26:15;-6.70;86.20
6738;DHT22;3406;49.902;8.596;2022-12-18T05:28:42;-6.70;86.30
6738;DHT22;3406;49.902;8.596;2022-12-18T05:31:09;-6.80;86.30
6738;DHT22;3406;49.902;8.596;2022-12-18T05:33:36;-6.60;86.50
6738;DHT22;3406;49.902;8.596;2022-12-18T05:36:05;-6.70;86.40
6738;DHT22;3406;49.902;8.596;2022-12-18T05:38:33;-6.70;86.30
6738;DHT22;3406;49.902;8.596;2022-12-18T05:41:02;-6.70;86.30
6738;DHT22;3406;49.902;8.596;2022-12-18T05:43:29;-6.70;86.20
6738;DHT22;3406;49.902;8.596;2022-12-18T05:45:56;-6.80;86.10
6738;DHT22;3406;49.902;8.596;2022-12-18T05:48:23;-6.70;86.40
6738;DHT22;3406;49.902;8.596;2022-12-18T05:50:50;-6.80;86.30
6738;DHT22;3406;49.902;8.596;2022-12-18T05:53:18;-6.80;86.10
6738;DHT22;3406;49.902;8.596;2022-12-18T05:55:46;-6.80;86.20
6738;DHT22;3406;49.902;8.596;2022-12-18T05:58:14;-6.80;86.10
6738;DHT22;3406;49.902;8.596;2022-12-18T06:00:44;-6.80;86.00
6738;DHT22;3406;49.902;8.596;2022-12-18T06:03:12;-6.80;86.10
6738;DHT22;3406;49.902;8.596;2022-12-18T06:05:40;-6.80;86.00
6738;DHT22;3406;49.902;8.596;2022-12-18T06:08:07;-6.80;85.90
6738;DHT22;3406;49.902;8.596;2022-12-18T06:10:34;-6.90;85.80
6738;DHT22;3406;49.902;8.596;2022-12-18T06:13:01;-6.90;85.80
6738;DHT22;3406;49.902;8.596;2022-12-18T06:15:29;-6.90;85.90
6738;DHT22;3406;49.902;8.596;2022-12-18T06:17:56;-6.90;85.60
6738;DHT22;3406;49.902;8.596;2022-12-18T06:20:23;-6.90;85.70
6738;DHT22;3406;49.902;8.596;2022-12-18T06:22:49;-7.00;85.60
6738;DHT22;3406;49.902;8.596;2022-12-18T06:25:16;-7.00;85.80
6738;DHT22;3406;49.902;8.596;2022-12-18T06:27:43;-7.00;85.80
6738;DHT22;3406;49.902;8.596;2022-12-18T06:30:11;-7.10;85.90
6738;DHT22;3406;49.902;8.596;2022-12-18T06:32:39;-7.10;86.00
6738;DHT22;3406;49.902;8.596;2022-12-18T06:35:07;-7.10;85.90
6738;DHT22;3406;49.902;8.596;2022-12-18T06:37:33;-7.10;86.20
6738;DHT22;3406;49.902;8.596;2022-12-18T06:40:00;-7.20;86.10
6738;DHT22;3406;49.902;8.596;2022-12-18T06:42:28;-7.10;86.20
6738;DHT22;3406;49.902;8.596;2022-12-18T06:44:55;-7.10;86.10
6738;DHT22;3406;49.902;8.596;2022-12-18T06:47:22;-7.10;85.90
6738;DHT22;3406;49.902;8.596;2022-12-18T06:49:50;-7.10;85.80
6738;DHT22;3406;49.902;8.596;2022-12-18T06:52:16;-7.20;85.00
6738;DHT22;3406;49.902;8.596;2022-12-18T06:54:43;-7.40;84.70
6738;DHT22;3406;49.902;8.596;2022-12-18T06:57:10;-7.60;84.60
6738;DHT22;3406;49.902;8.596;2022-12-18T06:59:36;-7.60;85.40
6738;DHT22;3406;49.902;8.596;2022-12-18T07:02:03;-7.60;85.60
6738;DHT22;3406;49.902;8.596;2022-12-18T07:04:30;-7.60;85.60
6738;DHT22;3406;49.902;8.596;2022-12-18T07:06:58;-7.60;85.40
6738;DHT22;3406;49.902;8.596;2022-12-18T07:09:25;-7.60;85.10
6738;DHT22;3406;49.902;8.596;2022-12-18T07:11:51;-7.80;84.30
6738;DHT22;3406;49.902;8.596;2022-12-18T07:14:18;-7.90;84.40
6738;DHT22;3406;49.902;8.596;2022-12-18T07:16:45;-8.00;84.50
6738;DHT22;3406;49.902;8.596;2022-12-18T07:19:12;-8.00;84.80
6738;DHT22;3406;49.902;8.596;2022-12-18T07:21:38;-8.10;84.80
6738;DHT22;3406;49.902;8.596;2022-12-18T07:24:07;-8.10;85.20
6738;DHT22;3406;49.902;8.596;2022-12-18T07:26:34;-8.00;85.40
6738;DHT22;3406;49.902;8.596;2022-12-18T07:29:00;-8.00;85.00
6738;DHT22;3406;49.902;8.596;2022-12-18T07:31:27;-8.00;85.20
6738;DHT22;3406;49.902;8.596;2022-12-18T07:33:54;-8.00;85.20
6738;DHT22;3406;49.902;8.596;2022-12-18T07:36:24;-8.00;84.80
6738;DHT22;3406;49.902;8.596;2022-12-18T07:38:51;-8.00;84.90
6738;DHT22;3406;49.902;8.596;2022-12-18T07:41:20;-8.00;84.60
6738;DHT22;3406;49.902;8.596;2022-12-18T07:43:47;-8.10;84.40
6738;DHT22;3406;49.902;8.596;2022-12-18T07:46:15;-8.10;84.70
6738;DHT22;3406;49.902;8.596;2022-12-18T07:48:42;-8.10;84.80
6738;DHT22;3406;49.902;8.596;2022-12-18T07:51:09;-8.10;84.70
6738;DHT22;3406;49.902;8.596;2022-12-18T07:53:36;-8.00;84.70
6738;DHT22;3406;49.902;8.596;2022-12-18T07:56:04;-8.00;84.70
6738;DHT22;3406;49.902;8.596;2022-12-18T07:58:33;-8.00;84.40
6738;DHT22;3406;49.902;8.596;2022-12-18T08:01:05;-8.10;84.20
6738;DHT22;3406;49.902;8.596;2022-12-18T08:03:32;-8.30;83.70
6738;DHT22;3406;49.902;8.596;2022-12-18T08:06:00;-8.30;83.80
6738;DHT22;3406;49.902;8.596;2022-12-18T08:08:27;-8.50;83.30
6738;DHT22;3406;49.902;8.596;2022-12-18T08:10:53;-8.70;83.50
6738;DHT22;3406;49.902;8.596;2022-12-18T08:13:20;-8.80;83.90
6738;DHT22;3406;49.902;8.596;2022-12-18T08:15:55;-8.80;84.10
6738;DHT22;3406;49.902;8.596;2022-12-18T08:18:23;-8.80;84.40
6738;DHT22;3406;49.902;8.596;2022-12-18T08:20:56;-8.90;84.30
6738;DHT22;3406;49.902;8.596;2022-12-18T08:23:22;-8.90;84.50
6738;DHT22;3406;49.902;8.596;2022-12-18T08:25:49;-8.80;84.60
6738;DHT22;3406;49.902;8.596;2022-12-18T08:28:16;-8.80;84.70
6738;DHT22;3406;49.902;8.596;2022-12-18T08:30:43;-8.80;84.60
6738;DHT22;3406;49.902;8.596;2022-12-18T08:33:11;-8.80;84.50
6738;DHT22;3406;49.902;8.596;2022-12-18T08:35:38;-8.70;84.90
6738;DHT22;3406;49.902;8.596;2022-12-18T08:38:05;-8.60;85.30
6738;DHT22;3406;49.902;8.596;2022-12-18T08:40:31;-8.50;85.30
6738;DHT22;3406;49.902;8.596;2022-12-18T08:42:58;-8.50;85.00
6738;DHT22;3406;49.902;8.596;2022-12-18T08:45:42;-8.50;84.60
6738;DHT22;3406;49.902;8.596;2022-12-18T08:48:10;-8.50;84.50
6738;DHT22;3406;49.902;8.596;2022-12-18T08:50:37;-8.50;84.40
6738;DHT22;3406;49.902;8.596;2022-12-18T08:53:04;-8.50;84.40
6738;DHT22;3406;49.902;8.596;2022-12-18T08:55:31;-8.50;84.60
6738;DHT22;3406;49.902;8.596;2022-12-18T08:57:57;-8.50;84.60
6738;DHT22;3406;49.902;8.596;2022-12-18T09:00:24;-8.50;84.70
6738;DHT22;3406;49.902;8.596;2022-12-18T09:02:51;-8.50;84.80
6738;DHT22;3406;49.902;8.596;2022-12-18T09:05:19;-8.50;84.70
6738;DHT22;3406;49.902;8.596;2022-12-18T09:07:45;-8.50;85.00
6738;DHT22;3406;49.902;8.596;2022-12-18T09:10:12;-8.50;85.20
6738;DHT22;3406;49.902;8.596;2022-12-18T09:12:39;-8.40;85.90
6738;DHT22;3406;49.902;8.596;2022-12-18T09:15:06;-8.20;86.10
6738;DHT22;3406;49.902;8.596;2022-12-18T09:17:33;-8.00;86.10
6738;DHT22;3406;49.902;8.596;2022-12-18T09:19:59;-7.90;85.80
6738;DHT22;3406;49.902;8.596;2022-12-18T09:22:27;-7.80;85.70
6738;DHT22;3406;49.902;8.596;2022-12-18T09:24:54;-7.60;86.10
6738;DHT22;3406;49.902;8.596;2022-12-18T09:27:21;-7.50;86.10
6738;DHT22;3406;49.902;8.596;2022-12-18T09:29:47;-7.30;86.20
6738;DHT22;3406;49.902;8.596;2022-12-18T09:32:14;-7.20;86.10
6738;DHT22;3406;49.902;8.596;2022-12-18T09:34:41;-7.10;86.00
6738;DHT22;3406;49.902;8.596;2022-12-18T09:37:07;-6.90;86.10
6738;DHT22;3406;49.902;8.596;2022-12-18T09:39:35;-6.80;86.00
6738;DHT22;3406;49.902;8.596;2022-12-18T09:42:02;-6.70;85.90
6738;DHT22;3406;49.902;8.596;2022-12-18T09:44:32;-6.60;85.90
6738;DHT22;3406;49.902;8.596;2022-12-18T09:47:09;-6.50;85.90
6738;DHT22;3406;49.902;8.596;2022-12-18T09:49:40;-6.40;86.00
6738;DHT22;3406;49.902;8.596;2022-12-18T09:52:13;-6.30;86.10
6738;DHT22;3406;49.902;8.596;2022-12-18T09:54:45;-6.20;86.00
6738;DHT22;3406;49.902;8.596;2022-12-18T09:57:15;-6.10;86.00
6738;DHT22;3406;49.902;8.596;2022-12-18T09:59:47;-5.90;86.20
6738;DHT22;3406;49.902;8.596;2022-12-18T10:02:17;-5.80;86.30
6738;DHT22;3406;49.902;8.596;2022-12-18T10:04:53;-5.70;86.40
6738;DHT22;3406;49.902;8.596;2022-12-18T10:07:27;-5.60;86.60
6738;DHT22;3406;49.902;8.596;2022-12-18T10:10:02;-5.50;86.60
6738;DHT22;3406;49.902;8.596;2022-12-18T10:12:39;-5.40;86.60
6738;DHT22;3406;49.902;8.596;2022-12-18T10:15:14;-5.20;86.80
6738;DHT22;3406;49.902;8.596;2022-12-18T10:17:47;-5.10;86.90
6738;DHT22;3406;49.902;8.596;2022-12-18T10:20:18;-5.00;87.00
6738;DHT22;3406;49.902;8.596;2022-12-18T10:22:53;-4.90;87.10
6738;DHT22;3406;49.902;8.596;2022-12-18T10:25:28;-4.70;87.40
6738;DHT22;3406;49.902;8.596;2022-12-18T10:27:57;-4.60;87.60
6738;DHT22;3406;49.902;8.596;2022-12-18T10:30:25;-4.40;87.60
6738;DHT22;3406;49.902;8.596;2022-12-18T10:32:52;-4.30;87.70
6738;DHT22;3406;49.902;8.596;2022-12-18T10:35:22;-4.20;87.60
6738;DHT22;3406;49.902;8.596;2022-12-18T10:38:04;-4.20;87.50
6738;DHT22;3406;49.902;8.596;2022-12-18T10:40:47;-4.20;87.50
6738;DHT22;3406;49.902;8.596;2022-12-18T10:43:16;-4.10;87.60
6738;DHT22;3406;49.902;8.596;2022-12-18T10:45:59;-4.10;87.40
6738;DHT22;3406;49.902;8.596;2022-12-18T10:48:26;-4.10;87.30
6738;DHT22;3406;49.902;8.596;2022-12-18T10:50:54;-4.00;87.30
6738;DHT22;3406;49.902;8.596;2022-12-18T10:53:23;-4.00;87.30
6738;DHT22;3406;49.902;8.596;2022-12-18T10:55:53;-4.00;87.10
6738;DHT22;3406;49.902;8.596;2022-12-18T10:58:24;-3.90;87.60
6738;DHT22;3406;49.902;8.596;2022-12-18T11:01:07;-3.90;87.00
6738;DHT22;3406;49.902;8.596;2022-12-18T11:03:35;-3.90;87.00
6738;DHT22;3406;49.902;8.596;2022-12-18T11:06:05;-3.80;87.10
6738;DHT22;3406;49.902;8.596;2022-12-18T11:08:32;-3.80;86.90
6738;DHT22;3406;49.902;8.596;2022-12-18T11:11:00;-3.70;86.90
6738;DHT22;3406;49.902;8.596;2022-12-18T11:13:29;-3.70;86.70
6738;DHT22;3406;49.902;8.596;2022-12-18T11:15:57;-3.70;86.60
6738;DHT22;3406;49.902;8.596;2022-12-18T11:18:27;-3.60;86.60
6738;DHT22;3406;49.902;8.596;2022-12-18T11:20:56;-3.60;86.40
6738;DHT22;3406;49.902;8.596;2022-12-18T11:23:24;-3.50;86.40
6738;DHT22;3406;49.902;8.596;2022-12-18T11:25:55;-3.50;86.20
6738;DHT22;3406;49.902;8.596;2022-12-18T11:28:35;-3.40;86.10
6738;DHT22;3406;49.902;8.596;2022-12-18T11:31:18;-3.40;86.70
6738;DHT22;3406;49.902;8.596;2022-12-18T11:33:49;-3.30;86.10
6738;DHT22;3406;49.902;8.596;2022-12-18T11:36:17;-3.30;85.80
6738;DHT22;3406;49.902;8.596;2022-12-18T11:38:45;-3.20;85.80
6738;DHT22;3406;49.902;8.596;2022-12-18T11:41:18;-3.20;85.70
6738;DHT22;3406;49.902;8.596;2022-12-18T11:43:50;-3.10;85.60
6738;DHT22;3406;49.902;8.596;2022-12-18T11:46:23;-3.10;85.50
6738;DHT22;3406;49.902;8.596;2022-12-18T11:48:58;-3.10;85.40
6738;DHT22;3406;49.902;8.596;2022-12-18T11:51:28;-3.10;85.30
6738;DHT22;3406;49.902;8.596;2022-12-18T11:53:56;-3.00;85.30
6738;DHT22;3406;49.902;8.596;2022-12-18T11:56:29;-3.00;85.00
6738;DHT22;3406;49.902;8.596;2022-12-18T11:59:07;-3.00;84.90
6738;DHT22;3406;49.902;8.596;2022-12-18T12:01:46;-3.00;84.60
6738;DHT22;3406;49.902;8.596;2022-12-18T12:04:38;-3.00;84.40
6738;DHT22;3406;49.902;8.596;2022-12-18T12:07:19;-2.90;84.60
6738;DHT22;3406;49.902;8.596;2022-12-18T12:09:56;-2.90;84.60
6738;DHT22;3406;49.902;8.596;2022-12-18T12:12:35;-2.80;84.40
6738;DHT22;3406;49.902;8.596;2022-12-18T12:15:22;-2.80;84.20
6738;DHT22;3406;49.902;8.596;2022-12-18T12:17:57;-2.80;84.00
6738;DHT22;3406;49.902;8.596;2022-12-18T12:20:40;-2.80;83.80
6738;DHT22;3406;49.902;8.596;2022-12-18T12:23:15;-2.70;83.80
6738;DHT22;3406;49.902;8.596;2022-12-18T12:25:49;-2.70;83.70
6738;DHT22;3406;49.902;8.596;2022-12-18T12:28:34;-2.70;83.40
6738;DHT22;3406;49.902;8.596;2022-12-18T12:31:11;-2.70;83.50
6738;DHT22;3406;49.902;8.596;2022-12-18T12:33:43;-2.70;83.50
6738;DHT22;3406;49.902;8.596;2022-12-18T12:36:20;-2.60;83.60
6738;DHT22;3406;49.902;8.596;2022-12-18T12:38:51;-2.40;83.60
6738;DHT22;3406;49.902;8.596;2022-12-18T12:41:23;-2.50;83.40
6738;DHT22;3406;49.902;8.596;2022-12-18T12:44:14;-2.50;83.20
6738;DHT22;3406;49.902;8.596;2022-12-18T12:46:43;-2.50;83.10
6738;DHT22;3406;49.902;8.596;2022-12-18T12:49:13;-2.50;83.00
6738;DHT22;3406;49.902;8.596;2022-12-18T12:51:43;-2.50;83.00
6738;DHT22;3406;49.902;8.596;2022-12-18T12:54:15;-2.40;83.00
6738;DHT22;3406;49.902;8.596;2022-12-18T12:56:48;-2.40;83.00
6738;DHT22;3406;49.902;8.596;2022-12-18T12:59:23;-2.30;83.00
6738;DHT22;3406;49.902;8.596;2022-12-18T13:01:59;-2.30;82.90
6738;DHT22;3406;49.902;8.596;2022-12-18T13:04:34;-2.30;82.70
6738;DHT22;3406;49.902;8.596;2022-12-18T13:07:06;-2.30;82.70
6738;DHT22;3406;49.902;8.596;2022-12-18T13:12:53;-2.20;82.70
6738;DHT22;3406;49.902;8.596;2022-12-18T13:15:27;-2.20;82.60
6738;DHT22;3406;49.902;8.596;2022-12-18T13:18:19;-2.20;82.50
6738;DHT22;3406;49.902;8.596;2022-12-18T13:20:47;-2.20;82.50
6738;DHT22;3406;49.902;8.596;2022-12-18T13:23:29;-2.20;82.20
6738;DHT22;3406;49.902;8.596;2022-12-18T13:25:58;-2.20;82.00
6738;DHT22;3406;49.902;8.596;2022-12-18T13:28:51;-2.20;82.20
6738;DHT22;3406;49.902;8.596;2022-12-18T13:34:35;-2.10;82.30
6738;DHT22;3406;49.902;8.596;2022-12-18T13:37:39;-2.10;82.20
6738;DHT22;3406;49.902;8.596;2022-12-18T13:43:20;-2.10;82.10
6738;DHT22;3406;49.902;8.596;2022-12-18T13:45:58;-2.10;82.00
6738;DHT22;3406;49.902;8.596;2022-12-18T13:48:26;-2.10;81.90
6738;DHT22;3406;49.902;8.596;2022-12-18T13:51:02;-2.10;81.90
6738;DHT22;3406;49.902;8.596;2022-12-18T13:53:34;-2.20;81.80
6738;DHT22;3406;49.902;8.596;2022-12-18T13:56:03;-2.20;81.90
6738;DHT22;3406;49.902;8.596;2022-12-18T13:58:30;-2.20;82.00
6738;DHT22;3406;49.902;8.596;2022-12-18T14:00:58;-2.10;82.10
6738;DHT22;3406;49.902;8.596;2022-12-18T14:03:28;-2.10;82.20
6738;DHT22;3406;49.902;8.596;2022-12-18T14:06:02;-2.00;82.30
6738;DHT22;3406;49.902;8.596;2022-12-18T14:08:35;-2.00;82.20
6738;DHT22;3406;49.902;8.596;2022-12-18T14:11:05;-2.00;82.00
6738;DHT22;3406;49.902;8.596;2022-12-18T14:13:35;-2.00;82.00
6738;DHT22;3406;49.902;8.596;2022-12-18T14:16:06;-2.00;82.10
6738;DHT22;3406;49.902;8.596;2022-12-18T14:18:41;-2.00;82.10
6738;DHT22;3406;49.902;8.596;2022-12-18T14:21:18;-2.00;82.10
6738;DHT22;3406;49.902;8.596;2022-12-18T14:23:46;-2.00;82.10
6738;DHT22;3406;49.902;8.596;2022-12-18T14:26:24;-2.00;82.20
6738;DHT22;3406;49.902;8.596;2022-12-18T14:28:52;-2.00;82.20
6738;DHT22;3406;49.902;8.596;2022-12-18T14:31:24;-2.00;82.20
6738;DHT22;3406;49.902;8.596;2022-12-18T14:33:51;-1.90;82.40
6738;DHT22;3406;49.902;8.596;2022-12-18T14:36:20;-1.90;82.40
6738;DHT22;3406;49.902;8.596;2022-12-18T14:38:49;-1.90;82.30
6738;DHT22;3406;49.902;8.596;2022-12-18T14:41:17;-1.90;82.30
6738;DHT22;3406;49.902;8.596;2022-12-18T14:43:47;-1.90;82.30
6738;DHT22;3406;49.902;8.596;2022-12-18T14:46:32;-1.90;82.40
6738;DHT22;3406;49.902;8.596;2022-12-18T14:49:01;-1.90;82.40
6738;DHT22;3406;49.902;8.596;2022-12-18T14:51:29;-1.90;83.00
6738;DHT22;3406;49.902;8.596;2022-12-18T14:53:58;-1.90;82.30
6738;DHT22;3406;49.902;8.596;2022-12-18T14:56:28;-1.90;82.40
6738;DHT22;3406;49.902;8.596;2022-12-18T14:58:57;-1.90;82.50
6738;DHT22;3406;49.902;8.596;2022-12-18T15:01:27;-1.90;82.50
6738;DHT22;3406;49.902;8.596;2022-12-18T15:03:56;-1.90;82.60
6738;DHT22;3406;49.902;8.596;2022-12-18T15:06:30;-1.90;82.50
6738;DHT22;3406;49.902;8.596;2022-12-18T15:08:58;-1.90;82.60
6738;DHT22;3406;49.902;8.596;2022-12-18T15:11:33;-1.90;82.50
6738;DHT22;3406;49.902;8.596;2022-12-18T15:14:23;-1.90;82.60
6738;DHT22;3406;49.902;8.596;2022-12-18T15:16:53;-1.90;82.70
6738;DHT22;3406;49.902;8.596;2022-12-18T15:19:26;-1.90;82.70
6738;DHT22;3406;49.902;8.596;2022-12-18T15:21:57;-1.90;82.60
6738;DHT22;3406;49.902;8.596;2022-12-18T15:24:26;-1.90;82.60
6738;DHT22;3406;49.902;8.596;2022-12-18T15:26:53;-1.90;82.60
6738;DHT22;3406;49.902;8.596;2022-12-18T15:29:21;-2.00;82.60
6738;DHT22;3406;49.902;8.596;2022-12-18T15:31:59;-2.00;82.60
6738;DHT22;3406;49.902;8.596;2022-12-18T15:34:27;-2.00;82.80
6738;DHT22;3406;49.902;8.596;2022-12-18T15:36:54;-2.00;82.80
6738;DHT22;3406;49.902;8.596;2022-12-18T15:39:21;-2.00;82.80
6738;DHT22;3406;49.902;8.596;2022-12-18T15:41:48;-2.00;82.80
6738;DHT22;3406;49.902;8.596;2022-12-18T15:44:32;-2.00;82.80
6738;DHT22;3406;49.902;8.596;2022-12-18T15:46:59;-2.00;82.80
6738;DHT22;3406;49.902;8.596;2022-12-18T15:49:26;-2.00;82.80
6738;DHT22;3406;49.902;8.596;2022-12-18T15:51:56;-2.10;82.90
6738;DHT22;3406;49.902;8.596;2022-12-18T15:54:24;-2.10;82.90
6738;DHT22;3406;49.902;8.596;2022-12-18T15:57:07;-2.10;83.00
6738;DHT22;3406;49.902;8.596;2022-12-18T15:59:49;-2.10;83.00
6738;DHT22;3406;49.902;8.596;2022-12-18T16:02:17;-2.10;83.10
6738;DHT22;3406;49.902;8.596;2022-12-18T16:04:45;-2.10;83.20
6738;DHT22;3406;49.902;8.596;2022-12-18T16:07:13;-2.10;83.20
6738;DHT22;3406;49.902;8.596;2022-12-18T16:09:40;-2.10;83.30
6738;DHT22;3406;49.902;8.596;2022-12-18T16:12:17;-2.10;83.30
6738;DHT22;3406;49.902;8.596;2022-12-18T16:14:44;-2.10;83.30
6738;DHT22;3406;49.902;8.596;2022-12-18T16:17:12;-2.10;83.30
6738;DHT22;3406;49.902;8.596;2022-12-18T16:19:39;-2.10;83.40
6738;DHT22;3406;49.902;8.596;2022-12-18T16:22:08;-2.10;83.40
6738;DHT22;3406;49.902;8.596;2022-12-18T16:24:42;-2.10;84.10
6738;DHT22;3406;49.902;8.596;2022-12-18T16:27:09;-2.10;83.40
6738;DHT22;3406;49.902;8.596;2022-12-18T16:29:35;-2.10;83.50